createdAt,value
2018-12-19T00:02:25.853Z,4.00
2018-12-19T00:04:53.109Z,3.90
2018-12-19T00:07:20.333Z,3.90
2018-12-19T00:09:47.543Z,3.90
2018-12-19T00:12:14.772Z,3.90
2018-12-19T00:14:42.029Z,3.90
2018-12-19T00:17:09.237Z,3.90
2018-12-19T00:19:36.468Z,3.80
2018-12-19T00:22:03.870Z,3.80
2018-12-19T00:24:31.089Z,3.80
2018-12-19T00:26:58.292Z,3.80
2018-12-19T00:29:25.525Z,3.80
2018-12-19T00:31:52.817Z,3.80
2018-12-19T00:34:20.040Z,3.80
2018-12-19T00:36:47.276Z,3.80
2018-12-19T00:39:14.510Z,3.80
2018-12-19T00:41:41.762Z,3.80
2018-12-19T00:44:08.955Z,3.80
2018-12-19T00:46:36.158Z,3.70
2018-12-19T00:49:03.502Z,3.70
2018-12-19T00:51:30.813Z,3.70
2018-12-19T00:53:58.009Z,3.70
2018-12-19T00:56:25.241Z,3.70
2018-12-19T00:58:52.445Z,3.70
2018-12-19T01:01:20.015Z,3.70
2018-12-19T01:03:47.272Z,3.70
2018-12-19T01:06:14.471Z,3.70
2018-12-19T01:08:41.672Z,3.70
2018-12-19T01:11:08.908Z,3.60
2018-12-19T01:13:36.249Z,3.70
2018-12-19T01:16:03.707Z,3.60
2018-12-19T01:18:30.949Z,3.60
2018-12-19T01:20:58.157Z,3.60
2018-12-19T01:23:25.373Z,3.60
2018-12-19T01:25:52.642Z,3.60
2018-12-19T01:28:19.827Z,3.60
2018-12-19T01:30:47.082Z,3.50
2018-12-19T01:33:14.332Z,3.50
2018-12-19T01:35:41.541Z,3.50
2018-12-19T01:38:08.752Z,3.50
2018-12-19T01:40:35.945Z,3.50
2018-12-19T01:43:03.255Z,3.50
2018-12-19T01:45:30.464Z,3.50
2018-12-19T01:47:57.937Z,3.50
2018-12-19T01:50:25.157Z,3.50
2018-12-19T01:52:52.426Z,3.50
2018-12-19T01:55:19.664Z,3.50
2018-12-19T01:57:46.900Z,3.50
2018-12-19T02:00:14.105Z,3.50
2018-12-19T02:02:41.373Z,3.60
2018-12-19T02:05:08.578Z,3.60
2018-12-19T02:07:35.897Z,3.60
2018-12-19T02:10:03.836Z,3.60
2018-12-19T02:12:31.150Z,3.60
2018-12-19T02:14:58.335Z,3.60
2018-12-19T02:17:25.611Z,3.60
2018-12-19T02:19:52.876Z,3.60
2018-12-19T02:22:20.108Z,3.60
2018-12-19T02:24:47.321Z,3.60
2018-12-19T02:27:14.565Z,3.60
2018-12-19T02:29:41.917Z,3.60
2018-12-19T02:32:09.216Z,3.60
2018-12-19T02:34:36.578Z,3.60
2018-12-19T02:37:03.918Z,3.60
2018-12-19T02:39:36.127Z,3.60
2018-12-19T02:42:00.527Z,3.60
2018-12-19T02:44:27.716Z,3.60
2018-12-19T02:46:54.953Z,3.70
2018-12-19T02:49:22.156Z,3.70
2018-12-19T02:51:49.375Z,3.70
2018-12-19T02:54:16.632Z,3.70
2018-12-19T02:56:43.833Z,3.70
2018-12-19T02:59:11.029Z,3.70
2018-12-19T03:01:38.283Z,3.70
2018-12-19T03:04:05.489Z,3.70
2018-12-19T03:06:32.728Z,3.70
2018-12-19T03:08:59.986Z,3.70
2018-12-19T03:11:27.186Z,3.70
2018-12-19T03:13:56.184Z,3.70
2018-12-19T03:16:23.685Z,3.70
2018-12-19T03:18:50.936Z,3.70
2018-12-19T03:21:18.172Z,3.70
2018-12-19T03:23:45.532Z,3.70
2018-12-19T03:26:12.779Z,3.70
2018-12-19T03:28:40.033Z,3.70
2018-12-19T03:31:07.330Z,3.70
2018-12-19T03:33:34.719Z,3.70
2018-12-19T03:36:02.012Z,3.70
2018-12-19T03:38:29.263Z,3.70
2018-12-19T03:40:56.557Z,3.70
2018-12-19T03:43:23.788Z,3.80
2018-12-19T03:45:51.044Z,3.80
2018-12-19T03:48:24.049Z,3.80
2018-12-19T03:50:51.359Z,3.70
2018-12-19T03:53:18.621Z,3.70
2018-12-19T03:55:45.934Z,3.70
2018-12-19T03:58:13.205Z,3.70
2018-12-19T04:00:40.397Z,3.70
2018-12-19T04:03:07.597Z,3.70
2018-12-19T04:05:34.979Z,3.70
2018-12-19T04:08:02.193Z,3.80
2018-12-19T04:10:29.394Z,3.80
2018-12-19T04:12:56.628Z,3.80
2018-12-19T04:15:23.810Z,3.70
2018-12-19T04:17:51.046Z,3.70
2018-12-19T04:20:18.274Z,3.80
2018-12-19T04:22:45.486Z,3.70
2018-12-19T04:25:12.714Z,3.70
2018-12-19T04:27:39.949Z,3.80
2018-12-19T04:30:07.332Z,3.80
2018-12-19T04:32:34.858Z,3.80
2018-12-19T04:35:02.502Z,3.80
2018-12-19T04:37:29.682Z,3.90
2018-12-19T04:39:56.868Z,3.90
2018-12-19T04:42:24.120Z,4.00
2018-12-19T04:44:51.345Z,4.00
2018-12-19T04:47:18.552Z,4.00
2018-12-19T04:49:45.793Z,4.10
2018-12-19T04:52:12.997Z,4.10
2018-12-19T04:54:40.249Z,4.10
2018-12-19T04:57:07.493Z,4.10
2018-12-19T04:59:34.689Z,4.20
2018-12-19T05:02:01.905Z,4.20
2018-12-19T05:04:29.140Z,4.20
2018-12-19T05:06:56.375Z,4.20
2018-12-19T05:09:23.593Z,4.10
2018-12-19T05:11:50.986Z,4.10
2018-12-19T05:14:18.545Z,4.20
2018-12-19T05:16:45.755Z,4.10
2018-12-19T05:19:12.996Z,4.10
2018-12-19T05:21:40.205Z,4.10
2018-12-19T05:24:07.426Z,4.10
2018-12-19T05:26:34.664Z,4.20
2018-12-19T05:29:01.893Z,4.10
2018-12-19T05:31:29.083Z,4.20
2018-12-19T05:33:56.337Z,4.10
2018-12-19T05:36:23.553Z,4.10
2018-12-19T05:38:52.330Z,4.10
2018-12-19T05:41:19.746Z,4.10
2018-12-19T05:43:46.974Z,4.10
2018-12-19T05:46:14.181Z,4.10
2018-12-19T05:48:41.480Z,4.10
2018-12-19T05:51:08.696Z,4.10
2018-12-19T05:53:35.908Z,4.10
2018-12-19T05:56:03.267Z,4.10
2018-12-19T05:58:30.552Z,4.10
2018-12-19T06:00:57.767Z,4.10
2018-12-19T06:03:24.981Z,4.10
2018-12-19T06:05:52.169Z,4.10
2018-12-19T06:08:19.391Z,4.10
2018-12-19T06:10:46.636Z,4.10
2018-12-19T06:13:13.848Z,4.10
2018-12-19T06:15:41.060Z,4.10
2018-12-19T06:18:08.289Z,4.10
2018-12-19T06:20:35.509Z,4.20
2018-12-19T06:23:02.860Z,4.20
2018-12-19T06:25:30.113Z,4.20
2018-12-19T06:27:57.555Z,4.20
2018-12-19T06:30:25.073Z,4.20
2018-12-19T06:32:52.452Z,4.20
2018-12-19T06:35:19.684Z,4.20
2018-12-19T06:37:46.890Z,4.10
2018-12-19T06:40:14.242Z,4.10
2018-12-19T06:42:41.564Z,4.00
2018-12-19T06:45:09.091Z,4.00
2018-12-19T06:47:36.332Z,4.00
2018-12-19T06:50:04.193Z,3.90
2018-12-19T06:52:31.380Z,3.90
2018-12-19T06:54:58.684Z,3.90
2018-12-19T06:57:25.935Z,3.90
2018-12-19T06:59:53.136Z,3.90
2018-12-19T07:02:20.367Z,3.90
2018-12-19T07:04:47.593Z,3.90
2018-12-19T07:07:14.797Z,3.90
2018-12-19T07:09:42.028Z,3.90
2018-12-19T07:12:09.216Z,3.80
2018-12-19T07:14:40.177Z,3.90
2018-12-19T07:17:07.540Z,3.90
2018-12-19T07:19:34.800Z,3.90
2018-12-19T07:22:02.016Z,3.90
2018-12-19T07:24:29.268Z,3.80
2018-12-19T07:26:56.453Z,3.80
2018-12-19T07:29:23.712Z,3.90
2018-12-19T07:31:51.088Z,3.80
2018-12-19T07:34:18.285Z,3.80
2018-12-19T07:36:45.598Z,3.90
2018-12-19T07:39:12.881Z,3.90
2018-12-19T07:41:40.093Z,3.90
2018-12-19T07:44:07.420Z,3.90
2018-12-19T07:46:34.753Z,3.90
2018-12-19T07:49:01.944Z,3.90
2018-12-19T07:51:29.257Z,3.90
2018-12-19T07:53:56.518Z,3.90
2018-12-19T07:56:24.301Z,3.90
2018-12-19T07:58:51.534Z,3.90
2018-12-19T08:01:18.769Z,4.00
2018-12-19T08:03:45.990Z,4.00
2018-12-19T08:06:13.205Z,4.10
2018-12-19T08:08:40.461Z,4.10
2018-12-19T08:11:07.695Z,4.10
2018-12-19T08:13:35.284Z,4.20
2018-12-19T08:16:02.521Z,4.20
2018-12-19T08:18:29.787Z,4.20
2018-12-19T08:20:56.977Z,4.20
2018-12-19T08:23:24.269Z,4.30
2018-12-19T08:25:51.469Z,4.30
2018-12-19T08:28:18.679Z,4.30
2018-12-19T08:30:45.912Z,4.30
2018-12-19T08:33:13.216Z,4.30
2018-12-19T08:35:40.432Z,4.40
2018-12-19T08:38:07.784Z,4.40
2018-12-19T08:40:34.996Z,4.40
2018-12-19T08:43:02.271Z,4.40
2018-12-19T08:45:30.008Z,4.50
2018-12-19T08:47:57.214Z,4.50
2018-12-19T08:50:24.513Z,4.50
2018-12-19T08:52:51.900Z,4.50
2018-12-19T08:55:19.470Z,4.50
2018-12-19T08:57:46.709Z,4.60
2018-12-19T09:00:14.176Z,4.60
2018-12-19T09:02:41.393Z,4.60
2018-12-19T09:05:08.604Z,4.60
2018-12-19T09:07:36.009Z,4.60
2018-12-19T09:10:04.149Z,4.60
2018-12-19T09:12:31.401Z,4.60
2018-12-19T09:14:58.771Z,4.60
2018-12-19T09:17:26.433Z,4.60
2018-12-19T09:19:54.069Z,4.60
2018-12-19T09:22:21.747Z,4.60
2018-12-19T09:24:49.096Z,4.60
2018-12-19T09:27:16.307Z,4.60
2018-12-19T09:29:43.554Z,4.70
2018-12-19T09:32:10.781Z,4.70
2018-12-19T09:34:37.978Z,4.70
2018-12-19T09:37:05.297Z,4.60
2018-12-19T09:39:32.544Z,4.60
2018-12-19T09:41:59.776Z,4.60
2018-12-19T09:44:27.027Z,4.60
2018-12-19T09:46:54.337Z,4.50
2018-12-19T09:49:21.556Z,4.50
2018-12-19T09:51:48.778Z,4.40
2018-12-19T09:54:16.574Z,4.40
2018-12-19T09:56:43.886Z,4.40
2018-12-19T09:59:11.133Z,4.40
2018-12-19T10:01:38.365Z,4.30
2018-12-19T10:04:05.580Z,4.30
2018-12-19T10:06:32.857Z,4.30
2018-12-19T10:09:00.091Z,4.30
2018-12-19T10:11:27.445Z,4.30
2018-12-19T10:13:54.735Z,4.30
2018-12-19T10:16:21.933Z,4.30
2018-12-19T10:18:49.137Z,4.30
2018-12-19T10:21:16.772Z,4.30
2018-12-19T10:23:44.099Z,4.30
2018-12-19T10:26:12.661Z,4.20
2018-12-19T10:28:40.121Z,4.30
2018-12-19T10:31:07.357Z,4.20
2018-12-19T10:33:34.722Z,4.20
2018-12-19T10:36:02.106Z,4.20
2018-12-19T10:38:29.371Z,4.20
2018-12-19T10:40:56.707Z,4.20
2018-12-19T10:43:23.958Z,4.20
2018-12-19T10:45:51.242Z,4.20
2018-12-19T10:48:18.461Z,4.20
2018-12-19T10:50:45.735Z,4.20
2018-12-19T10:53:12.936Z,4.20
2018-12-19T10:55:40.181Z,4.20
2018-12-19T10:58:07.434Z,4.20
2018-12-19T11:00:40.351Z,4.20
2018-12-19T11:03:07.624Z,4.20
2018-12-19T11:05:34.862Z,4.20
2018-12-19T11:08:02.130Z,4.20
2018-12-19T11:10:29.506Z,4.20
2018-12-19T11:12:56.933Z,4.20
2018-12-19T11:15:24.140Z,4.20
2018-12-19T11:17:51.440Z,4.20
2018-12-19T11:20:18.713Z,4.20
2018-12-19T11:22:45.979Z,4.20
2018-12-19T11:25:13.227Z,4.20
2018-12-19T11:27:40.457Z,4.10
2018-12-19T11:30:08.403Z,4.10
2018-12-19T11:32:35.668Z,4.10
2018-12-19T11:35:03.347Z,4.10
2018-12-19T11:37:30.555Z,4.10
2018-12-19T11:39:57.825Z,4.10
2018-12-19T11:42:25.023Z,4.10
2018-12-19T11:44:52.226Z,4.00
2018-12-19T11:47:19.476Z,4.10
2018-12-19T11:49:46.707Z,4.10
2018-12-19T11:52:13.945Z,4.00
2018-12-19T11:54:41.218Z,4.00
2018-12-19T11:57:08.757Z,4.00
2018-12-19T11:59:35.993Z,4.00
2018-12-19T12:02:03.236Z,4.00
2018-12-19T12:04:30.580Z,4.00
2018-12-19T12:06:57.799Z,4.00
2018-12-19T12:09:25.051Z,3.90
2018-12-19T12:11:52.255Z,3.90
2018-12-19T12:14:19.492Z,3.90
2018-12-19T12:16:46.734Z,3.90
2018-12-19T12:19:13.940Z,3.90
2018-12-19T12:21:41.178Z,3.90
2018-12-19T12:24:08.412Z,3.90
2018-12-19T12:26:35.631Z,3.90
2018-12-19T12:29:02.860Z,3.90
2018-12-19T12:31:30.101Z,3.80
2018-12-19T12:33:57.346Z,3.80
2018-12-19T12:36:24.679Z,3.80
2018-12-19T12:38:51.907Z,3.80
2018-12-19T12:41:19.092Z,3.80
2018-12-19T12:43:46.296Z,3.80
2018-12-19T12:46:13.661Z,3.80
2018-12-19T12:48:40.876Z,3.80
2018-12-19T12:51:08.077Z,3.80
2018-12-19T12:53:35.573Z,3.80
2018-12-19T12:56:02.942Z,3.80
2018-12-19T12:58:30.149Z,3.80
2018-12-19T13:00:57.400Z,3.80
2018-12-19T13:03:24.597Z,3.80
2018-12-19T13:05:51.824Z,3.80
2018-12-19T13:08:19.161Z,3.70
2018-12-19T13:10:46.510Z,3.70
2018-12-19T13:13:13.724Z,3.70
2018-12-19T13:15:45.092Z,3.70
2018-12-19T13:18:12.318Z,3.70
2018-12-19T13:20:39.545Z,3.70
2018-12-19T13:23:06.798Z,3.70
2018-12-19T13:25:34.015Z,3.70
2018-12-19T13:28:01.470Z,3.70
2018-12-19T13:30:28.713Z,3.60
2018-12-19T13:32:55.900Z,3.60
2018-12-19T13:35:23.095Z,3.60
2018-12-19T13:37:50.364Z,3.60
2018-12-19T13:40:17.585Z,3.60
2018-12-19T13:42:44.817Z,3.60
2018-12-19T13:45:12.189Z,3.60
2018-12-19T13:47:39.612Z,3.60
2018-12-19T13:50:07.492Z,3.60
2018-12-19T13:52:34.716Z,3.60
2018-12-19T13:55:02.034Z,3.60
2018-12-19T13:57:29.478Z,3.60
2018-12-19T13:59:56.732Z,3.60
2018-12-19T14:02:23.938Z,3.60
2018-12-19T14:04:51.251Z,3.60
2018-12-19T14:07:18.484Z,3.60
2018-12-19T14:09:45.810Z,3.60
2018-12-19T14:12:13.127Z,3.60
2018-12-19T14:14:40.426Z,3.60
2018-12-19T14:17:07.729Z,3.60
2018-12-19T14:19:34.921Z,3.60
2018-12-19T14:22:02.366Z,3.60
2018-12-19T14:24:29.609Z,3.60
2018-12-19T14:26:56.841Z,3.60
2018-12-19T14:29:24.128Z,3.50
2018-12-19T14:31:51.344Z,3.50
2018-12-19T14:34:18.558Z,3.50
2018-12-19T14:36:45.810Z,3.50
2018-12-19T14:39:13.021Z,3.50
2018-12-19T14:41:40.519Z,3.50
2018-12-19T14:44:07.917Z,3.50
2018-12-19T14:46:35.165Z,3.50
2018-12-19T14:49:02.686Z,3.50
2018-12-19T14:51:30.039Z,3.50
2018-12-19T14:53:57.240Z,3.50
2018-12-19T14:56:24.460Z,3.50
2018-12-19T14:58:51.699Z,3.50
2018-12-19T15:01:18.982Z,3.40
2018-12-19T15:03:46.186Z,3.50
2018-12-19T15:06:13.464Z,3.40
2018-12-19T15:08:40.765Z,3.40
2018-12-19T15:11:07.982Z,3.40
2018-12-19T15:13:35.262Z,3.40
2018-12-19T15:16:03.275Z,3.40
2018-12-19T15:18:30.573Z,3.40
2018-12-19T15:20:57.807Z,3.40
2018-12-19T15:23:25.060Z,3.40
2018-12-19T15:25:52.278Z,3.40
2018-12-19T15:28:19.514Z,3.40
2018-12-19T15:30:46.738Z,3.40
2018-12-19T15:33:13.992Z,3.40
2018-12-19T15:35:41.396Z,3.40
2018-12-19T15:38:08.927Z,3.40
2018-12-19T15:40:36.168Z,3.30
2018-12-19T15:43:03.554Z,3.40
2018-12-19T15:45:30.882Z,3.40
2018-12-19T15:47:58.185Z,3.40
2018-12-19T15:50:25.429Z,3.40
2018-12-19T15:52:52.644Z,3.40
2018-12-19T15:55:19.851Z,3.40
2018-12-19T15:57:47.076Z,3.40
2018-12-19T16:00:15.875Z,3.40
2018-12-19T16:02:43.169Z,3.40
2018-12-19T16:05:10.648Z,3.40
2018-12-19T16:07:37.847Z,3.40
2018-12-19T16:10:05.568Z,3.30
2018-12-19T16:12:39.082Z,3.30
2018-12-19T16:15:02.396Z,3.30
2018-12-19T16:17:29.581Z,3.30
2018-12-19T16:19:56.853Z,3.30
2018-12-19T16:22:24.152Z,3.30
2018-12-19T16:24:51.503Z,3.30
2018-12-19T16:27:18.944Z,3.30
2018-12-19T16:29:46.125Z,3.30
2018-12-19T16:32:13.366Z,3.20
2018-12-19T16:34:40.613Z,3.30
2018-12-19T16:37:07.926Z,3.30
2018-12-19T16:39:35.193Z,3.30
2018-12-19T16:42:02.650Z,3.30
2018-12-19T16:44:29.866Z,3.20
2018-12-19T16:46:57.162Z,3.20
2018-12-19T16:49:24.398Z,3.20
2018-12-19T16:51:52.402Z,3.20
2018-12-19T16:54:19.639Z,3.20
2018-12-19T16:56:46.913Z,3.20
2018-12-19T16:59:14.249Z,3.20
2018-12-19T17:01:48.076Z,3.20
2018-12-19T17:04:15.270Z,3.20
2018-12-19T17:06:42.483Z,3.20
2018-12-19T17:09:09.837Z,3.10
2018-12-19T17:11:37.085Z,3.10
2018-12-19T17:14:04.435Z,3.10
2018-12-19T17:16:32.124Z,3.10
2018-12-19T17:18:59.741Z,3.10
2018-12-19T17:21:27.273Z,3.10
2018-12-19T17:23:54.891Z,3.10
2018-12-19T17:26:22.460Z,3.10
2018-12-19T17:28:50.166Z,3.10
2018-12-19T17:31:17.849Z,3.10
2018-12-19T17:33:45.461Z,3.10
2018-12-19T17:36:12.983Z,3.10
2018-12-19T17:38:40.616Z,3.10
2018-12-19T17:41:08.093Z,3.10
2018-12-19T17:43:35.712Z,3.10
2018-12-19T17:46:03.212Z,3.00
2018-12-19T17:48:30.694Z,3.00
2018-12-19T17:50:58.345Z,3.00
2018-12-19T17:53:26.023Z,3.00
2018-12-19T17:55:53.513Z,3.10
2018-12-19T17:58:21.112Z,3.10
2018-12-19T18:00:49.745Z,3.10
2018-12-19T18:03:17.209Z,3.10
2018-12-19T18:05:44.708Z,3.00
2018-12-19T18:08:12.208Z,3.00
2018-12-19T18:10:39.691Z,3.00
2018-12-19T18:13:08.301Z,3.00
2018-12-19T18:15:36.198Z,3.00
2018-12-19T18:18:03.852Z,3.00
2018-12-19T18:20:31.324Z,3.00
2018-12-19T18:22:59.016Z,2.90
2018-12-19T18:25:26.688Z,3.00
2018-12-19T18:27:54.280Z,3.00
2018-12-19T18:30:21.989Z,3.00
2018-12-19T18:32:49.650Z,3.00
2018-12-19T18:35:17.192Z,3.00
2018-12-19T18:37:44.744Z,3.00
2018-12-19T18:40:12.419Z,3.00
2018-12-19T18:42:40.048Z,3.00
2018-12-19T18:45:11.938Z,3.00
2018-12-19T18:47:37.600Z,3.00
2018-12-19T18:50:06.260Z,3.00
2018-12-19T18:52:33.978Z,3.00
2018-12-19T18:55:02.549Z,3.00
2018-12-19T18:57:30.095Z,3.00
2018-12-19T18:59:57.696Z,3.00
2018-12-19T19:02:25.458Z,3.00
2018-12-19T19:04:53.232Z,3.00
2018-12-19T19:07:21.058Z,3.00
2018-12-19T19:09:49.101Z,3.00
2018-12-19T19:12:16.964Z,3.00
2018-12-19T19:14:44.673Z,3.00
2018-12-19T19:17:12.368Z,3.00
2018-12-19T19:19:40.041Z,3.00
2018-12-19T19:22:07.752Z,3.00
2018-12-19T19:24:35.428Z,3.00
2018-12-19T19:27:03.080Z,3.00
2018-12-19T19:29:30.853Z,3.00
2018-12-19T19:31:58.534Z,3.00
2018-12-19T19:34:26.185Z,3.00
2018-12-19T19:36:53.900Z,3.00
2018-12-19T19:39:21.552Z,2.90
2018-12-19T19:41:49.230Z,2.90
2018-12-19T19:44:16.984Z,2.90
2018-12-19T19:46:45.624Z,2.90
2018-12-19T19:49:13.698Z,2.90
2018-12-19T19:51:41.409Z,2.90
2018-12-19T19:54:09.713Z,2.90
2018-12-19T19:56:37.426Z,2.90
2018-12-19T19:59:05.170Z,2.90
2018-12-19T20:01:32.905Z,2.90
2018-12-19T20:04:00.601Z,2.90
2018-12-19T20:06:28.350Z,2.90
2018-12-19T20:08:56.080Z,2.90
2018-12-19T20:11:23.761Z,2.90
2018-12-19T20:13:51.489Z,2.90
2018-12-19T20:16:19.182Z,2.90
2018-12-19T20:18:46.953Z,2.90
2018-12-19T20:21:15.541Z,2.90
2018-12-19T20:23:43.245Z,2.90
2018-12-19T20:26:10.961Z,2.90
2018-12-19T20:28:38.745Z,2.90
2018-12-19T20:31:06.422Z,2.90
2018-12-19T20:33:34.653Z,2.90
2018-12-19T20:36:02.418Z,2.90
2018-12-19T20:38:30.112Z,2.90
2018-12-19T20:40:57.859Z,2.90
2018-12-19T20:43:25.594Z,2.90
2018-12-19T20:45:53.323Z,2.90
2018-12-19T20:48:21.047Z,2.90
2018-12-19T20:50:48.729Z,2.90
2018-12-19T20:53:16.591Z,2.80
2018-12-19T20:55:44.407Z,2.90
2018-12-19T20:58:12.194Z,2.80
2018-12-19T21:00:40.887Z,2.80
2018-12-19T21:03:08.593Z,2.80
2018-12-19T21:05:36.311Z,2.80
2018-12-19T21:08:04.146Z,2.80
2018-12-19T21:10:31.854Z,2.80
2018-12-19T21:12:59.592Z,2.80
2018-12-19T21:15:27.265Z,2.80
2018-12-19T21:18:01.082Z,2.80
2018-12-19T21:20:28.760Z,2.80
2018-12-19T21:22:56.428Z,2.80
2018-12-19T21:25:24.146Z,2.80
2018-12-19T21:27:51.830Z,2.80
2018-12-19T21:30:20.164Z,2.80
2018-12-19T21:32:47.882Z,2.80
2018-12-19T21:35:15.541Z,2.80
2018-12-19T21:37:43.245Z,2.80
2018-12-19T21:40:10.988Z,2.80
2018-12-19T21:42:39.024Z,2.80
2018-12-19T21:45:06.676Z,2.80
2018-12-19T21:47:34.092Z,2.80
2018-12-19T21:50:01.321Z,2.80
2018-12-19T21:52:28.567Z,2.80
2018-12-19T21:54:55.904Z,2.80
2018-12-19T21:57:23.293Z,2.80
2018-12-19T21:59:50.663Z,2.80
2018-12-19T22:02:18.056Z,2.80
2018-12-19T22:04:45.271Z,2.80
2018-12-19T22:07:12.749Z,2.80
2018-12-19T22:09:40.077Z,2.80
2018-12-19T22:12:07.411Z,2.80
2018-12-19T22:14:34.612Z,2.80
2018-12-19T22:17:07.575Z,2.90
2018-12-19T22:19:34.879Z,2.90
2018-12-19T22:22:02.200Z,2.90
2018-12-19T22:24:29.603Z,2.80
2018-12-19T22:26:56.952Z,2.90
2018-12-19T22:29:24.731Z,2.90
2018-12-19T22:31:52.217Z,2.90
2018-12-19T22:34:19.526Z,2.90
2018-12-19T22:36:46.771Z,2.90
2018-12-19T22:39:17.918Z,2.90
2018-12-19T22:41:45.643Z,2.90
2018-12-19T22:44:12.996Z,2.90
2018-12-19T22:46:40.530Z,2.90
2018-12-19T22:49:07.755Z,2.90
2018-12-19T22:51:34.974Z,2.90
2018-12-19T22:54:02.429Z,2.90
2018-12-19T22:56:29.700Z,2.90
2018-12-19T22:58:56.969Z,2.90
2018-12-19T23:01:30.252Z,2.90
2018-12-19T23:04:03.423Z,2.90
2018-12-19T23:06:30.924Z,2.90
2018-12-19T23:08:58.413Z,2.90
2018-12-19T23:11:28.733Z,2.90
2018-12-19T23:13:56.038Z,2.90
2018-12-19T23:16:25.893Z,2.90
2018-12-19T23:18:53.295Z,2.90
2018-12-19T23:21:20.569Z,2.90
2018-12-19T23:23:47.889Z,2.90
2018-12-19T23:26:15.337Z,2.90
2018-12-19T23:28:42.849Z,2.90
2018-12-19T23:31:10.260Z,2.90
2018-12-19T23:33:37.522Z,2.90
2018-12-19T23:36:04.893Z,2.90
2018-12-19T23:38:32.488Z,2.90
2018-12-19T23:40:59.863Z,2.90
2018-12-19T23:43:27.192Z,2.90
2018-12-19T23:45:54.488Z,2.90
2018-12-19T23:48:21.866Z,2.90
2018-12-19T23:50:49.136Z,2.90
2018-12-19T23:53:16.407Z,2.90
2018-12-19T23:55:43.755Z,2.90
2018-12-19T23:58:11.179Z,2.90
